createdAt,value
2022-08-23T00:00:12.981Z,61.6
2022-08-23T00:01:10.392Z,61.7
2022-08-23T00:02:23.173Z,62.3
2022-08-23T00:03:10.452Z,62.3
2022-08-23T00:04:11.625Z,62.6
2022-08-23T00:05:10.424Z,62.7
2022-08-23T00:06:10.675Z,62.9
2022-08-23T00:07:10.380Z,63.4
2022-08-23T00:08:10.385Z,63.5
2022-08-23T00:09:10.424Z,63.5
2022-08-23T00:10:10.407Z,62.6
2022-08-23T00:11:10.395Z,62.5
2022-08-23T00:12:10.393Z,62.9
2022-08-23T00:13:10.394Z,63.3
2022-08-23T00:14:10.487Z,63.5
2022-08-23T00:15:10.410Z,63.9
2022-08-23T00:16:10.498Z,64
2022-08-23T00:17:10.399Z,64.4
2022-08-23T00:18:10.390Z,64.5
2022-08-23T00:19:10.407Z,64.6
2022-08-23T00:20:10.430Z,65.2
2022-08-23T00:21:10.466Z,65.2
2022-08-23T00:22:10.400Z,65.2
2022-08-23T00:23:10.425Z,65.3
2022-08-23T00:24:10.401Z,65.3
2022-08-23T00:25:10.405Z,65.6
2022-08-23T00:26:10.403Z,66.4
2022-08-23T00:27:10.468Z,67.2
2022-08-23T00:28:14.745Z,67.2
2022-08-23T00:29:10.410Z,67
2022-08-23T00:30:10.450Z,67.2
2022-08-23T00:31:10.412Z,67.1
2022-08-23T00:32:10.506Z,68
2022-08-23T00:33:10.429Z,67.9
2022-08-23T00:34:10.405Z,67.5
2022-08-23T00:35:10.466Z,68.5
2022-08-23T00:36:10.437Z,68.2
2022-08-23T00:37:10.428Z,68.6
2022-08-23T00:38:32.296Z,68.7
2022-08-23T00:39:10.456Z,68.4
2022-08-23T00:40:10.476Z,68
2022-08-23T00:41:10.457Z,67.5
2022-08-23T00:42:10.398Z,67.9
2022-08-23T00:43:10.408Z,67.7
2022-08-23T00:44:10.418Z,67.2
2022-08-23T00:45:10.408Z,67.3
2022-08-23T00:46:10.404Z,68
2022-08-23T00:47:10.411Z,68.3
2022-08-23T00:48:10.421Z,67.7
2022-08-23T00:49:10.418Z,67.7
2022-08-23T00:50:23.912Z,68.7
2022-08-23T00:51:10.432Z,68.8
2022-08-23T00:52:10.406Z,69.1
2022-08-23T00:53:10.401Z,68.2
2022-08-23T00:54:10.431Z,67.8
2022-08-23T00:55:10.402Z,67.4
2022-08-23T00:56:10.477Z,67.3
2022-08-23T00:57:10.430Z,67.6
2022-08-23T00:58:10.431Z,67.3
2022-08-23T00:59:10.416Z,67.5
2022-08-23T01:00:10.420Z,67.1
2022-08-23T01:01:10.401Z,67.2
2022-08-23T01:02:10.518Z,67.5
2022-08-23T01:03:10.488Z,67
2022-08-23T01:04:10.504Z,66.8
2022-08-23T01:05:10.430Z,67.1
2022-08-23T01:06:10.402Z,67.2
2022-08-23T01:07:10.408Z,67.1
2022-08-23T01:08:10.543Z,67.3
2022-08-23T01:09:10.586Z,67.9
2022-08-23T01:10:10.414Z,68.3
2022-08-23T01:11:10.418Z,68.5
2022-08-23T01:12:10.447Z,68.7
2022-08-23T01:13:10.418Z,68.9
2022-08-23T01:14:10.475Z,68.6
2022-08-23T01:15:10.419Z,69.5
2022-08-23T01:16:10.424Z,69.2
2022-08-23T01:17:10.415Z,68.6
2022-08-23T01:18:10.429Z,68.5
2022-08-23T01:19:10.449Z,69.3
2022-08-23T01:20:10.457Z,69.7
2022-08-23T01:21:10.742Z,70.5
2022-08-23T01:22:10.424Z,70.7
2022-08-23T01:23:10.481Z,70.5
2022-08-23T01:24:10.486Z,70.2
2022-08-23T01:25:10.417Z,70.6
2022-08-23T01:26:10.460Z,70.3
2022-08-23T01:27:10.441Z,69.6
2022-08-23T01:28:10.434Z,69.8
2022-08-23T01:29:10.419Z,69.8
2022-08-23T01:30:10.427Z,70.6
2022-08-23T01:31:10.416Z,70.8
2022-08-23T01:32:10.413Z,70.7
2022-08-23T01:33:10.448Z,70.1
2022-08-23T01:34:10.490Z,70.9
2022-08-23T01:35:10.464Z,71.1
2022-08-23T01:36:10.409Z,71.7
2022-08-23T01:37:10.410Z,70.6
2022-08-23T01:38:10.518Z,70.1
2022-08-23T01:39:10.421Z,70
2022-08-23T01:40:10.500Z,70.2
2022-08-23T01:41:10.410Z,70.2
2022-08-23T01:42:10.414Z,70.1
2022-08-23T01:43:10.445Z,70.2
2022-08-23T01:44:10.461Z,70.4
2022-08-23T01:45:10.486Z,70.5
2022-08-23T01:46:10.437Z,70.8
2022-08-23T01:47:10.436Z,70.9
2022-08-23T01:48:10.417Z,70.7
2022-08-23T01:49:10.423Z,71.4
2022-08-23T01:50:10.431Z,70.3
2022-08-23T01:51:10.417Z,71.1
2022-08-23T01:52:10.412Z,71.2
2022-08-23T01:53:10.425Z,71.4
2022-08-23T01:54:10.446Z,71.5
2022-08-23T01:55:10.531Z,71
2022-08-23T01:56:10.447Z,71.2
2022-08-23T01:57:10.419Z,70.8
2022-08-23T01:58:10.415Z,69.8
2022-08-23T01:59:10.417Z,69.4
2022-08-23T02:00:10.454Z,68.8
2022-08-23T02:01:10.451Z,68.5
2022-08-23T02:02:10.432Z,68.5
2022-08-23T02:03:10.437Z,68.2
2022-08-23T02:04:10.410Z,68.7
2022-08-23T02:05:10.416Z,68.6
2022-08-23T02:06:10.417Z,68.5
2022-08-23T02:07:10.422Z,68.9
2022-08-23T02:08:10.449Z,68.6
2022-08-23T02:09:17.334Z,68.7
2022-08-23T02:10:10.415Z,68.2
2022-08-23T02:11:10.414Z,68
2022-08-23T02:12:10.433Z,67.6
2022-08-23T02:13:10.493Z,67.8
2022-08-23T02:14:10.425Z,67.4
2022-08-23T02:15:10.462Z,67.1
2022-08-23T02:16:10.422Z,67.1
2022-08-23T02:17:10.448Z,67.2
2022-08-23T02:18:10.421Z,66.3
2022-08-23T02:19:10.422Z,65.9
2022-08-23T02:20:10.478Z,66.4
2022-08-23T02:21:10.580Z,66.2
2022-08-23T02:22:10.484Z,66.6
2022-08-23T02:23:10.508Z,66.7
2022-08-23T02:24:10.429Z,66.9
2022-08-23T02:25:10.455Z,67.4
2022-08-23T02:26:10.527Z,67.6
2022-08-23T02:27:10.490Z,67.7
2022-08-23T02:28:10.577Z,68
2022-08-23T02:29:10.623Z,67.6
2022-08-23T02:30:10.467Z,67.6
2022-08-23T02:31:11.410Z,66.8
2022-08-23T02:32:10.908Z,67
2022-08-23T02:33:10.951Z,67
2022-08-23T02:35:10.467Z,67.1
2022-08-23T02:36:10.547Z,67.5
2022-08-23T02:37:10.455Z,67.9
2022-08-23T02:38:10.460Z,68.5
2022-08-23T02:39:10.473Z,68.9
2022-08-23T02:40:10.634Z,68.9
2022-08-23T02:41:10.545Z,69.4
2022-08-23T02:42:11.884Z,70
2022-08-23T02:43:10.516Z,69.9
2022-08-23T02:44:10.462Z,70.4
2022-08-23T02:45:10.570Z,71.1
2022-08-23T02:46:10.463Z,71.2
2022-08-23T02:47:10.482Z,71.9
2022-08-23T02:48:10.581Z,71.6
2022-08-23T02:49:10.498Z,71
2022-08-23T02:50:10.625Z,71.2
2022-08-23T02:51:10.467Z,71.6
2022-08-23T02:52:10.507Z,71.5
2022-08-23T02:53:10.479Z,71.2
2022-08-23T02:54:10.480Z,71.2
2022-08-23T02:55:10.465Z,70.4
2022-08-23T02:56:17.027Z,70
2022-08-23T02:57:10.493Z,69.2
2022-08-23T02:58:10.551Z,69.1
2022-08-23T02:59:10.582Z,68.9
2022-08-23T03:00:10.486Z,68.2
2022-08-23T03:01:10.569Z,68.2
2022-08-23T03:02:10.620Z,67.2
2022-08-23T03:03:10.476Z,67.1
2022-08-23T03:04:10.589Z,67.3
2022-08-23T03:05:10.468Z,66.5
2022-08-23T03:06:25.303Z,66.2
2022-08-23T03:07:10.471Z,65.7
2022-08-23T03:08:10.507Z,65.8
2022-08-23T03:09:10.528Z,65.7
2022-08-23T03:10:10.465Z,65.6
2022-08-23T03:11:10.523Z,65.6
2022-08-23T03:12:10.463Z,65.8
2022-08-23T03:13:10.476Z,65.4
2022-08-23T03:14:10.570Z,65.6
2022-08-23T03:15:10.552Z,65.9
2022-08-23T03:16:10.549Z,66.1
2022-08-23T03:17:10.461Z,66.4
2022-08-23T03:18:10.494Z,66.3
2022-08-23T03:19:10.466Z,65.8
2022-08-23T03:20:10.473Z,66.1
2022-08-23T03:21:10.507Z,66.3
2022-08-23T03:22:10.496Z,66.4
2022-08-23T03:23:10.500Z,66.1
2022-08-23T03:24:10.642Z,66.3
2022-08-23T03:25:10.641Z,66.4
2022-08-23T03:26:10.819Z,66.7
2022-08-23T03:27:10.504Z,66.3
2022-08-23T03:28:10.519Z,66.3
2022-08-23T03:29:10.561Z,65.9
2022-08-23T03:30:17.825Z,65.4
2022-08-23T03:31:10.527Z,64.8
2022-08-23T03:32:10.606Z,65
2022-08-23T03:33:10.622Z,65.4
2022-08-23T03:34:10.495Z,65.5
2022-08-23T03:35:14.926Z,65.3
2022-08-23T03:36:10.465Z,65.1
2022-08-23T03:37:10.574Z,65.9
2022-08-23T03:38:10.543Z,66.1
2022-08-23T03:39:10.532Z,65.9
2022-08-23T03:40:10.547Z,65.9
2022-08-23T03:41:10.473Z,65.8
2022-08-23T03:42:10.490Z,65.4
2022-08-23T03:43:10.455Z,65.8
2022-08-23T03:44:10.449Z,65.1
2022-08-23T03:45:10.446Z,65.1
2022-08-23T03:46:10.568Z,64.4
2022-08-23T03:47:10.434Z,64.7
2022-08-23T03:48:10.444Z,65.2
2022-08-23T03:49:10.460Z,65.3
2022-08-23T03:50:10.454Z,65.5
2022-08-23T03:51:10.488Z,65.6
2022-08-23T03:52:10.462Z,65.9
2022-08-23T03:53:12.144Z,66.5
2022-08-23T03:54:10.468Z,66.8
2022-08-23T03:55:10.460Z,66.6
2022-08-23T03:56:10.439Z,66.9
2022-08-23T03:57:10.533Z,66.5
2022-08-23T03:58:10.551Z,66.8
2022-08-23T03:59:10.456Z,66.8
2022-08-23T04:00:10.505Z,66.7
2022-08-23T04:01:10.448Z,66.6
2022-08-23T04:02:10.521Z,66.7
2022-08-23T04:03:10.442Z,67.1
2022-08-23T04:04:10.450Z,67.1
2022-08-23T04:05:10.457Z,67.5
2022-08-23T04:06:10.552Z,67.5
2022-08-23T04:07:10.490Z,67.5
2022-08-23T04:08:10.449Z,67
2022-08-23T04:09:10.451Z,67.2
2022-08-23T04:10:10.442Z,67.1
2022-08-23T04:11:10.452Z,66.8
2022-08-23T04:12:12.011Z,67.4
2022-08-23T04:13:10.467Z,67.2
2022-08-23T04:14:10.481Z,67.1
2022-08-23T04:15:10.458Z,67.6
2022-08-23T04:16:10.502Z,67.6
2022-08-23T04:17:10.654Z,68.1
2022-08-23T04:18:10.476Z,68.9
2022-08-23T04:19:10.527Z,68.2
2022-08-23T04:20:10.444Z,68.5
2022-08-23T04:21:10.545Z,68.3
2022-08-23T04:22:10.673Z,68.5
2022-08-23T04:23:10.448Z,69.2
2022-08-23T04:24:10.480Z,68.5
2022-08-23T04:25:33.646Z,68.4
2022-08-23T04:26:10.459Z,68.2
2022-08-23T04:27:10.767Z,68.7
2022-08-23T04:28:10.486Z,68.5
2022-08-23T04:29:10.491Z,68.5
2022-08-23T04:30:10.700Z,68.2
2022-08-23T04:31:10.449Z,68.1
2022-08-23T04:32:11.752Z,67.5
2022-08-23T04:33:12.571Z,68.3
2022-08-23T04:34:10.471Z,69.1
2022-08-23T04:35:10.489Z,69.7
2022-08-23T04:36:10.533Z,69.3
2022-08-23T04:37:10.728Z,69
2022-08-23T04:38:18.309Z,68.9
2022-08-23T04:39:10.459Z,69.2
2022-08-23T04:40:10.523Z,69.5
2022-08-23T04:41:11.172Z,69.9
2022-08-23T04:42:14.670Z,69.6
2022-08-23T04:43:10.471Z,69.2
2022-08-23T04:44:10.447Z,69.3
2022-08-23T04:45:10.475Z,69.5
2022-08-23T04:46:10.459Z,70.1
2022-08-23T04:47:10.645Z,69.4
2022-08-23T04:48:12.075Z,69.7
2022-08-23T04:49:10.522Z,69.2
2022-08-23T04:50:10.453Z,69
2022-08-23T04:51:10.468Z,69.9
2022-08-23T04:52:10.869Z,70
2022-08-23T04:53:10.473Z,69.5
2022-08-23T04:54:10.458Z,69.4
2022-08-23T04:55:10.456Z,69.5
2022-08-23T04:56:10.511Z,69.1
2022-08-23T04:57:10.906Z,68.9
2022-08-23T04:58:10.466Z,68.6
2022-08-23T04:59:13.131Z,68.9
2022-08-23T05:00:10.466Z,69.2
2022-08-23T05:01:10.507Z,69
2022-08-23T05:02:10.500Z,69.1
2022-08-23T05:03:10.490Z,69.2
2022-08-23T05:04:10.461Z,68.3
2022-08-23T05:05:10.496Z,68.2
2022-08-23T05:06:10.457Z,68.7
2022-08-23T05:07:10.532Z,68.3
2022-08-23T05:08:10.561Z,68.4
2022-08-23T05:09:10.478Z,69
2022-08-23T05:10:10.500Z,68.6
2022-08-23T05:11:10.575Z,68.1
2022-08-23T05:12:10.482Z,67.6
2022-08-23T05:13:10.472Z,67.7
2022-08-23T05:14:10.472Z,66.8
2022-08-23T05:15:10.470Z,65.7
2022-08-23T05:16:10.458Z,64.5
2022-08-23T05:17:10.596Z,65
2022-08-23T05:18:10.495Z,64.2
2022-08-23T05:19:10.464Z,63.9
2022-08-23T05:20:10.469Z,64.4
2022-08-23T05:21:10.496Z,63.9
2022-08-23T05:22:12.141Z,63.9
2022-08-23T05:23:10.467Z,63.6
2022-08-23T05:24:13.689Z,63.7
2022-08-23T05:25:10.475Z,64.5
2022-08-23T05:26:10.484Z,64.2
2022-08-23T05:27:13.481Z,64.5
2022-08-23T05:28:10.478Z,64.6
2022-08-23T05:29:10.483Z,64.3
2022-08-23T05:30:14.429Z,64
2022-08-23T05:31:11.764Z,63.9
2022-08-23T05:32:10.488Z,63.9
2022-08-23T05:33:10.462Z,64
2022-08-23T05:34:10.484Z,64.1
2022-08-23T05:35:10.466Z,63.9
2022-08-23T05:36:10.608Z,63.5
2022-08-23T05:37:10.477Z,63.6
2022-08-23T05:38:10.507Z,63.7
2022-08-23T05:39:10.480Z,63.2
2022-08-23T05:40:10.589Z,62.8
2022-08-23T05:41:10.536Z,63.2
2022-08-23T05:42:10.469Z,63.7
2022-08-23T05:43:10.512Z,63.6
2022-08-23T05:44:10.492Z,63.3
2022-08-23T05:45:10.517Z,62.9
2022-08-23T05:46:13.036Z,62.2
2022-08-23T05:47:11.509Z,62.4
2022-08-23T05:48:10.468Z,62.3
2022-08-23T05:49:10.478Z,63.6
2022-08-23T05:50:10.480Z,63.8
2022-08-23T05:51:10.465Z,64.8
2022-08-23T05:52:10.510Z,63.6
2022-08-23T05:53:10.482Z,64.2
2022-08-23T05:54:10.481Z,63.4
2022-08-23T05:55:10.480Z,63.6
2022-08-23T05:56:10.482Z,64.6
2022-08-23T05:57:10.595Z,64.1
2022-08-23T05:58:10.525Z,63.2
2022-08-23T05:59:12.380Z,62.8
2022-08-23T06:00:10.554Z,63.3
2022-08-23T06:01:10.562Z,62.6
2022-08-23T06:02:10.526Z,62
2022-08-23T06:03:10.482Z,62.7
2022-08-23T06:04:10.589Z,63.4
2022-08-23T06:05:10.504Z,63.6
2022-08-23T06:06:10.534Z,63.7
2022-08-23T06:07:10.487Z,64.2
2022-08-23T06:08:10.486Z,64
2022-08-23T06:09:10.494Z,63.9
2022-08-23T06:10:16.201Z,64
2022-08-23T06:11:10.526Z,63.6
2022-08-23T06:12:10.535Z,63.1
2022-08-23T06:13:10.543Z,62.9
2022-08-23T06:14:10.577Z,63.2
2022-08-23T06:15:10.677Z,62.7
2022-08-23T06:16:14.518Z,62.9
2022-08-23T06:17:10.858Z,62.6
2022-08-23T06:18:10.854Z,62
2022-08-23T06:19:10.485Z,61.7
2022-08-23T06:20:10.626Z,62
2022-08-23T06:21:10.605Z,61.9
2022-08-23T06:22:10.481Z,61.5
2022-08-23T06:23:11.223Z,61.5
2022-08-23T06:24:10.520Z,60.8
2022-08-23T06:25:10.561Z,60.8
2022-08-23T06:26:10.492Z,60.8
2022-08-23T06:27:10.517Z,60.4
2022-08-23T06:28:10.538Z,59.4
2022-08-23T06:29:10.635Z,59.7
2022-08-23T06:30:11.979Z,59.9
2022-08-23T06:31:10.558Z,59.3
2022-08-23T06:32:10.646Z,58.9
2022-08-23T06:33:10.502Z,58.6
2022-08-23T06:34:10.642Z,59.3
2022-08-23T06:35:33.244Z,59.5
2022-08-23T06:36:10.516Z,58.9
2022-08-23T06:37:10.524Z,58.1
2022-08-23T06:38:10.523Z,57.6
2022-08-23T06:39:10.505Z,56.5
2022-08-23T06:40:10.559Z,56.3
2022-08-23T06:41:10.512Z,55.8
2022-08-23T06:42:34.884Z,56
2022-08-23T06:43:10.502Z,56.6
2022-08-23T06:44:10.489Z,55.8
2022-08-23T06:45:10.548Z,55.5
2022-08-23T06:46:10.494Z,56.6
2022-08-23T06:47:10.487Z,57.2
2022-08-23T06:48:10.678Z,56.7
2022-08-23T06:49:10.794Z,56.5
2022-08-23T06:50:10.609Z,56.4
2022-08-23T06:51:10.491Z,55.7
2022-08-23T06:52:10.503Z,55.3
2022-08-23T06:53:10.512Z,55.4
2022-08-23T06:54:10.518Z,55.3
2022-08-23T06:55:13.596Z,55.6
2022-08-23T06:56:10.512Z,56
2022-08-23T06:57:10.527Z,56.4
2022-08-23T06:58:10.488Z,55.6
2022-08-23T06:59:10.568Z,54.6
2022-08-23T07:00:10.593Z,54.7
2022-08-23T07:01:23.503Z,54.6
2022-08-23T07:02:10.663Z,54.9
2022-08-23T07:03:10.565Z,55
2022-08-23T07:04:10.514Z,55.8
2022-08-23T07:05:10.525Z,55.1
2022-08-23T07:06:10.511Z,54.3
2022-08-23T07:07:12.008Z,54.6
2022-08-23T07:08:10.506Z,54.7
2022-08-23T07:09:10.522Z,54.9
2022-08-23T07:10:10.613Z,55.4
2022-08-23T07:11:10.502Z,55.4
2022-08-23T07:12:10.505Z,54.7
2022-08-23T07:13:10.524Z,54.4
2022-08-23T07:14:10.605Z,53.8
2022-08-23T07:15:10.496Z,54.4
2022-08-23T07:16:10.655Z,54.2
2022-08-23T07:17:10.603Z,53.4
2022-08-23T07:18:13.480Z,52.8
2022-08-23T07:19:10.500Z,52.5
2022-08-23T07:20:10.513Z,52.1
2022-08-23T07:21:10.593Z,51.9
2022-08-23T07:22:10.513Z,52.8
2022-08-23T07:23:10.541Z,52.8
2022-08-23T07:24:10.497Z,52.9
2022-08-23T07:25:10.538Z,52.3
2022-08-23T07:26:10.512Z,51.9
2022-08-23T07:27:10.502Z,52.4
2022-08-23T07:28:11.826Z,53.1
2022-08-23T07:29:10.490Z,52.9
2022-08-23T07:30:10.545Z,52.9
2022-08-23T07:31:14.713Z,52.8
2022-08-23T07:32:10.615Z,53.3
2022-08-23T07:33:10.495Z,52.4
2022-08-23T07:34:10.504Z,52
2022-08-23T07:35:10.514Z,51.8
2022-08-23T07:36:10.612Z,51.9
2022-08-23T07:37:11.576Z,52.2
2022-08-23T07:38:10.501Z,51.2
2022-08-23T07:39:10.496Z,51.5
2022-08-23T07:40:10.563Z,51.8
2022-08-23T07:41:10.501Z,51.8
2022-08-23T07:42:23.787Z,52.8
2022-08-23T07:43:10.516Z,51.6
2022-08-23T07:44:10.622Z,51.4
2022-08-23T07:45:12.947Z,52
2022-08-23T07:46:12.562Z,50.4
2022-08-23T07:47:10.500Z,51.2
2022-08-23T07:48:10.494Z,52.1
2022-08-23T07:49:10.571Z,51.7
2022-08-23T07:50:10.504Z,51.7
2022-08-23T07:51:10.553Z,51.1
2022-08-23T07:52:12.122Z,50.3
2022-08-23T07:53:10.498Z,50.3
2022-08-23T07:54:10.501Z,49.3
2022-08-23T07:55:10.505Z,49.7
2022-08-23T07:56:10.506Z,49.9
2022-08-23T07:57:10.503Z,49.4
2022-08-23T07:58:10.527Z,49
2022-08-23T07:59:10.501Z,48.6
2022-08-23T08:00:10.510Z,47.9
2022-08-23T08:01:10.502Z,47.4
2022-08-23T08:02:10.606Z,47.6
2022-08-23T08:03:11.275Z,47.6
2022-08-23T08:04:10.544Z,47.5
2022-08-23T08:05:10.541Z,47.4
2022-08-23T08:06:10.512Z,48.3
2022-08-23T08:07:19.359Z,47.2
2022-08-23T08:08:10.511Z,47.8
2022-08-23T08:09:10.503Z,47.7
2022-08-23T08:10:10.688Z,47.9
2022-08-23T08:11:10.584Z,48
2022-08-23T08:12:10.536Z,47.2
2022-08-23T08:13:10.509Z,48.4
2022-08-23T08:14:10.506Z,49.1
2022-08-23T08:15:10.610Z,49.2
2022-08-23T08:16:10.597Z,48.6
2022-08-23T08:17:10.515Z,48.2
2022-08-23T08:18:10.512Z,47.5
2022-08-23T08:19:10.532Z,46.8
2022-08-23T08:20:10.522Z,48.2
2022-08-23T08:21:10.545Z,47.3
2022-08-23T08:22:10.525Z,46.6
2022-08-23T08:23:10.515Z,46
2022-08-23T08:24:10.582Z,46.7
2022-08-23T08:25:10.517Z,46.9
2022-08-23T08:26:10.676Z,47
2022-08-23T08:27:10.511Z,48.4
2022-08-23T08:28:15.695Z,48.3
2022-08-23T08:29:10.535Z,47.6
2022-08-23T08:30:10.520Z,47.4
2022-08-23T08:31:10.538Z,47
2022-08-23T08:32:13.842Z,46.7
2022-08-23T08:33:10.561Z,46.4
2022-08-23T08:34:10.533Z,46.4
2022-08-23T08:35:10.514Z,46.7
2022-08-23T08:36:10.521Z,47.1
2022-08-23T08:37:10.515Z,45.7
2022-08-23T08:38:10.546Z,45.7
2022-08-23T08:39:10.660Z,45.4
2022-08-23T08:40:10.599Z,45.7
2022-08-23T08:41:10.516Z,46
2022-08-23T08:42:10.515Z,45.5
2022-08-23T08:43:10.522Z,44.9
2022-08-23T08:44:13.613Z,44.5
2022-08-23T08:45:10.534Z,44.3
2022-08-23T08:46:10.673Z,45.2
2022-08-23T08:47:10.555Z,45
2022-08-23T08:48:13.506Z,45.3
2022-08-23T08:49:10.615Z,44.5
2022-08-23T08:50:10.625Z,44.9
2022-08-23T08:51:10.521Z,44.1
2022-08-23T08:52:10.641Z,43.5
2022-08-23T08:53:10.517Z,43.5
2022-08-23T08:54:10.563Z,44.2
2022-08-23T08:55:10.582Z,43.5
2022-08-23T08:56:10.552Z,43.5
2022-08-23T08:57:10.573Z,43.1
2022-08-23T08:58:10.516Z,43.5
2022-08-23T08:59:10.592Z,43.9
2022-08-23T09:00:10.529Z,44.4
2022-08-23T09:01:10.595Z,42.4
2022-08-23T09:02:32.782Z,43.3
2022-08-23T09:03:10.630Z,42.6
2022-08-23T09:04:10.529Z,42.2
2022-08-23T09:05:10.521Z,42.9
2022-08-23T09:06:11.658Z,43.4
2022-08-23T09:07:10.526Z,42.8
2022-08-23T09:08:10.553Z,42.1
2022-08-23T09:09:10.643Z,42.1
2022-08-23T09:10:10.527Z,42
2022-08-23T09:11:10.565Z,41.5
2022-08-23T09:12:10.526Z,41.7
2022-08-23T09:13:11.438Z,41.4
2022-08-23T09:14:10.538Z,41.8
2022-08-23T09:15:10.559Z,41.5
2022-08-23T09:16:10.587Z,41.6
2022-08-23T09:17:10.527Z,42.9
2022-08-23T09:18:10.530Z,43.1
2022-08-23T09:19:10.522Z,42.5
2022-08-23T09:20:10.529Z,43.1
2022-08-23T09:21:10.526Z,42.6
2022-08-23T09:22:10.563Z,42.6
2022-08-23T09:23:10.520Z,42.4
2022-08-23T09:24:10.533Z,42.6
2022-08-23T09:25:10.545Z,42
2022-08-23T09:26:10.530Z,42.3
2022-08-23T09:27:10.564Z,42.8
2022-08-23T09:28:10.560Z,42.1
2022-08-23T09:29:10.564Z,42
2022-08-23T09:30:10.533Z,41.7
2022-08-23T09:31:10.582Z,41.8
2022-08-23T09:32:12.343Z,42.1
2022-08-23T09:33:10.539Z,41.9
2022-08-23T09:34:10.709Z,40.4
2022-08-23T09:35:10.531Z,41.5
2022-08-23T09:36:10.565Z,41.7
2022-08-23T09:37:10.546Z,40.2
2022-08-23T09:38:11.378Z,40.3
2022-08-23T09:39:10.534Z,41.8
2022-08-23T09:40:10.581Z,41.7
2022-08-23T09:41:10.538Z,41.5
2022-08-23T09:42:10.531Z,41.1
2022-08-23T09:43:10.567Z,40.7
2022-08-23T09:44:10.561Z,41.1
2022-08-23T09:45:10.532Z,41.2
2022-08-23T09:46:10.576Z,41.4
2022-08-23T09:47:10.531Z,42
2022-08-23T09:48:10.525Z,43
2022-08-23T09:49:10.549Z,43
2022-08-23T09:50:10.595Z,41.8
2022-08-23T09:51:11.198Z,40.2
2022-08-23T09:52:10.554Z,39.5
2022-08-23T09:53:10.537Z,41.3
2022-08-23T09:54:10.544Z,41.4
2022-08-23T09:55:10.527Z,40.5
2022-08-23T09:56:10.532Z,40.2
2022-08-23T09:57:10.574Z,40.6
2022-08-23T09:58:10.709Z,40.2
2022-08-23T09:59:10.750Z,40.7
2022-08-23T10:00:10.865Z,40.7
2022-08-23T10:01:10.831Z,40.6
2022-08-23T10:02:11.026Z,40
2022-08-23T10:03:10.762Z,40.3
2022-08-23T10:04:10.614Z,40.4
2022-08-23T10:05:14.789Z,40
2022-08-23T10:06:10.546Z,39.8
2022-08-23T10:07:10.553Z,39.3
2022-08-23T10:08:11.013Z,39.8
2022-08-23T10:09:10.675Z,40.1
2022-08-23T10:10:10.555Z,40.4
2022-08-23T10:11:10.636Z,40.4
2022-08-23T10:12:10.547Z,40.7
2022-08-23T10:13:10.548Z,39.6
2022-08-23T10:14:10.550Z,38.9
2022-08-23T10:15:10.564Z,40.1
2022-08-23T10:16:10.711Z,40.4
2022-08-23T10:17:10.543Z,40.8
2022-08-23T10:18:10.581Z,39.7
2022-08-23T10:19:10.549Z,38.6
2022-08-23T10:20:10.539Z,38.9
2022-08-23T10:21:10.555Z,38.8
2022-08-23T10:22:10.558Z,38.9
2022-08-23T10:23:10.545Z,37.3
2022-08-23T10:24:10.552Z,38.6
2022-08-23T10:25:10.586Z,37.5
2022-08-23T10:26:10.630Z,38.4
2022-08-23T10:27:10.558Z,38
2022-08-23T10:28:10.555Z,37.8
2022-08-23T10:29:10.657Z,37.2
2022-08-23T10:30:10.547Z,37.5
2022-08-23T10:31:10.581Z,38.8
2022-08-23T10:32:10.582Z,37.7
2022-08-23T10:33:10.547Z,37.3
2022-08-23T10:34:10.561Z,37
2022-08-23T10:35:10.551Z,37.4
2022-08-23T10:36:10.542Z,37.6
2022-08-23T10:37:10.574Z,38.2
2022-08-23T10:38:10.611Z,38.4
2022-08-23T10:39:10.582Z,37.9
2022-08-23T10:40:10.635Z,37.2
2022-08-23T10:41:10.554Z,37.2
2022-08-23T10:42:10.637Z,36.2
2022-08-23T10:43:10.565Z,36.3
2022-08-23T10:44:10.635Z,36.4
2022-08-23T10:45:10.569Z,36.6
2022-08-23T10:46:10.680Z,37.1
2022-08-23T10:47:10.573Z,38
2022-08-23T10:48:10.567Z,37.2
2022-08-23T10:49:10.555Z,37
2022-08-23T10:50:10.579Z,37
2022-08-23T10:51:10.564Z,37.7
2022-08-23T10:52:10.560Z,38.4
2022-08-23T10:53:10.696Z,37.4
2022-08-23T10:54:10.572Z,37.1
2022-08-23T10:55:10.568Z,37.4
2022-08-23T10:56:10.571Z,38.4
2022-08-23T10:57:10.635Z,37.5
2022-08-23T10:58:10.589Z,37.5
2022-08-23T10:59:10.561Z,36.1
2022-08-23T11:00:10.652Z,35.1
2022-08-23T11:01:10.592Z,34.6
2022-08-23T11:02:10.578Z,35.5
2022-08-23T11:03:10.580Z,35.2
2022-08-23T11:04:10.571Z,35.7
2022-08-23T11:05:10.629Z,34.5
2022-08-23T11:06:10.578Z,34.8
2022-08-23T11:07:10.596Z,35.5
2022-08-23T11:08:10.562Z,36.4
2022-08-23T11:09:10.556Z,36
2022-08-23T11:10:16.251Z,35.1
2022-08-23T11:11:10.611Z,35.2
2022-08-23T11:12:11.135Z,35.6
2022-08-23T11:13:10.574Z,35.6
2022-08-23T11:14:10.604Z,35.7
2022-08-23T11:15:10.582Z,35.7
2022-08-23T11:16:10.602Z,36
2022-08-23T11:17:10.583Z,36.1
2022-08-23T11:18:10.564Z,36.4
2022-08-23T11:19:10.664Z,36
2022-08-23T11:20:10.561Z,35
2022-08-23T11:21:10.599Z,34.8
2022-08-23T11:22:10.579Z,34.7
2022-08-23T11:23:10.573Z,34.6
2022-08-23T11:24:10.599Z,35.3
2022-08-23T11:25:10.573Z,34.7
2022-08-23T11:26:10.640Z,34.6
2022-08-23T11:27:10.612Z,34.6
2022-08-23T11:28:10.717Z,34.9
2022-08-23T11:29:10.565Z,35.6
2022-08-23T11:30:10.618Z,34.2
2022-08-23T11:31:11.789Z,34.1
2022-08-23T11:32:10.573Z,34.1
2022-08-23T11:33:10.574Z,34.3
2022-08-23T11:34:10.593Z,34.2
2022-08-23T11:35:10.621Z,34.6
2022-08-23T11:36:10.577Z,34.7
2022-08-23T11:37:10.672Z,33.8
2022-08-23T11:38:10.711Z,34.1
2022-08-23T11:39:10.588Z,33.8
2022-08-23T11:40:14.795Z,33.7
2022-08-23T11:41:10.581Z,34.7
2022-08-23T11:42:10.606Z,34.6
2022-08-23T11:43:10.576Z,34.5
2022-08-23T11:44:10.574Z,34.1
2022-08-23T11:45:10.562Z,33.6
2022-08-23T11:46:10.592Z,34.5
2022-08-23T11:47:10.571Z,35.6
2022-08-23T11:48:10.574Z,34.3
2022-08-23T11:49:10.615Z,33.1
2022-08-23T11:50:10.574Z,33
2022-08-23T11:51:10.566Z,32.2
2022-08-23T11:52:10.733Z,32.3
2022-08-23T11:53:10.580Z,32.5
2022-08-23T11:54:10.654Z,32.1
2022-08-23T11:55:10.595Z,31.5
2022-08-23T11:56:10.612Z,31.2
2022-08-23T11:57:10.620Z,31.6
2022-08-23T11:58:10.583Z,31
2022-08-23T11:59:10.604Z,30
2022-08-23T12:00:10.609Z,30
2022-08-23T12:01:10.569Z,31.3
2022-08-23T12:02:14.173Z,31.7
2022-08-23T12:03:10.724Z,30.3
2022-08-23T12:04:10.775Z,31
2022-08-23T12:05:10.647Z,31.9
2022-08-23T12:06:10.588Z,30.5
2022-08-23T12:07:10.584Z,29.6
2022-08-23T12:08:10.584Z,29.2
2022-08-23T12:09:10.575Z,28.6
2022-08-23T12:10:10.606Z,28.5
2022-08-23T12:11:10.694Z,27.3
2022-08-23T12:12:10.586Z,28.8
2022-08-23T12:13:10.588Z,28.1
2022-08-23T12:14:10.573Z,27.2
2022-08-23T12:15:12.092Z,28.4
2022-08-23T12:16:16.338Z,27.2
2022-08-23T12:17:10.664Z,27.6
2022-08-23T12:18:10.751Z,25.9
2022-08-23T12:19:10.586Z,26.5
2022-08-23T12:20:16.361Z,26.7
2022-08-23T12:21:10.580Z,27.8
2022-08-23T12:22:10.589Z,27.3
2022-08-23T12:23:10.582Z,26.9
2022-08-23T12:24:10.626Z,28.1
2022-08-23T12:25:10.583Z,27.2
2022-08-23T12:26:10.585Z,26.8
2022-08-23T12:27:10.692Z,27
2022-08-23T12:28:10.700Z,27.6
2022-08-23T12:29:10.601Z,26.2
2022-08-23T12:30:10.601Z,26.5
2022-08-23T12:31:13.515Z,25.4
2022-08-23T12:32:10.581Z,24.9
2022-08-23T12:33:10.589Z,25.1
2022-08-23T12:34:10.629Z,26.1
2022-08-23T12:35:10.600Z,26.3
2022-08-23T12:36:15.480Z,26
2022-08-23T12:37:10.587Z,26.5
2022-08-23T12:38:10.632Z,26.5
2022-08-23T12:39:10.669Z,27.7
2022-08-23T12:40:10.854Z,27.6
2022-08-23T12:41:10.674Z,27.9
2022-08-23T12:42:10.587Z,27.1
2022-08-23T12:43:10.599Z,27.6
2022-08-23T12:44:10.636Z,28
2022-08-23T12:45:10.641Z,26.9
2022-08-23T12:46:10.682Z,26.7
2022-08-23T12:47:10.594Z,26.4
2022-08-23T12:48:10.615Z,27.3
2022-08-23T12:49:13.191Z,27.5
2022-08-23T12:50:10.632Z,27.3
2022-08-23T12:51:10.639Z,27.4
2022-08-23T12:52:10.628Z,26.1
2022-08-23T12:53:10.606Z,25.6
2022-08-23T12:54:10.607Z,24.5
2022-08-23T12:55:10.666Z,23.9
2022-08-23T12:56:10.606Z,23.8
2022-08-23T12:57:10.599Z,23.7
2022-08-23T12:58:10.680Z,24.6
2022-08-23T12:59:10.635Z,24.5
2022-08-23T13:00:18.819Z,24.9
2022-08-23T13:01:10.718Z,26.4
2022-08-23T13:02:10.636Z,26.7
2022-08-23T13:03:10.709Z,27.6
2022-08-23T13:04:10.616Z,27.9
2022-08-23T13:05:13.459Z,27.4
2022-08-23T13:06:11.657Z,29.7
2022-08-23T13:07:10.617Z,29.4
2022-08-23T13:08:10.654Z,29.9
2022-08-23T13:09:10.611Z,30.7
2022-08-23T13:10:10.611Z,28.4
2022-08-23T13:11:10.626Z,27.5
2022-08-23T13:12:10.616Z,26.3
2022-08-23T13:13:10.646Z,25.9
2022-08-23T13:14:10.602Z,25.7
2022-08-23T13:15:10.605Z,25.3
2022-08-23T13:16:10.680Z,25.2
2022-08-23T13:17:10.606Z,24.9
2022-08-23T13:18:11.520Z,24.7
2022-08-23T13:19:10.616Z,23.8
2022-08-23T13:20:10.656Z,24.3
2022-08-23T13:21:10.612Z,24.4
2022-08-23T13:22:10.615Z,25.2
2022-08-23T13:23:10.613Z,25.5